Weather at Tyagarah Airport

Public forecast

Using degrees Celsius for public forecast. Weather courtesy of forecast.io.

Closest aviation weather report (METAR) to Tyagarah Airport

Closest report is Ballina Byron Gateway Airport, 14.4 nm (26.6 km) S. Retrieved 2021/04/15 07:00 UTC (55 minutes ago):

YBNA 150700Z AUTO 04007KT 9999 // NCD 23/15 Q1014

Closest aviation forecast (TAF) to Tyagarah Airport

Closest forecast is Gold Coast Airport, 25.9 nm (48.1 km) N. Retrieved 2021/04/15 06:00 UTC (2 hours ago):

TAF YBCG 150502Z 1506/1606 01012KT CAVOK FM151000 30007KT CAVOK FM151900 21006KT 9999 FEW030 FM160100 17013KT 9999 SCT030